Terminal Aerodrome Forecast
Issued by NWS Twin Cities, MN

Home | Current Version | Previous Version | Text Only | Print | Product List | Glossary On
Versions: 1 2 3 4 5 6 7 8 9 10 11 12
000
FTUS43 KMPX 021720
TAFSTC
TAF
KSTC 021720Z 0218/0318 17016G23KT P6SM BKN150
     FM030300 15012KT P6SM BKN050
     FM030500 17012KT 6SM -TSRA BR OVC040CB
     FM030900 17009KT P6SM OVC015=

USA.gov is the U.S. government's official web portal to all federal, state and local government web resources and services.